Time;durP1;ratioP1;P1;durP2;ratioP2;P2;SDS_P1;SDS_P2;PMS_P1;PMS_P2;Temp;Humidity;BMP_temperature;BMP_pressure;BME280_temperature;BME280_humidity;BME280_pressure;Samples;Min_cycle;Max_cycle;Signal;HPM_P1;HPM_P2
2023/12/20 00:02:00;;;;;;;10.63;1.10;;;;;;;;;;5265104;28;20078;-77
2023/12/20 00:04:31;;;;;;;5.55;1.20;;;;;;;;;;5264306;28;20017;-76
2023/12/20 00:07:02;;;;;;;8.30;1.10;;;;;;;;;;5264790;28;20025;-77
2023/12/20 00:09:34;;;;;;;9.13;1.00;;;;;;;;;;5264000;28;20029;-76
2023/12/20 00:12:05;;;;;;;6.38;0.90;;;;;;;;;;5264806;28;20021;-76
2023/12/20 00:14:36;;;;;;;8.30;0.93;;;;;;;;;;5264863;28;20181;-77
2023/12/20 00:17:07;;;;;;;7.90;1.08;;;;;;;;;;5263877;28;20021;-77
2023/12/20 00:19:38;;;;;;;11.60;1.50;;;;;;;;;;5264395;28;20040;-77
2023/12/20 00:22:10;;;;;;;8.85;1.70;;;;;;;;;;5264701;28;20468;-77
2023/12/20 00:24:41;;;;;;;7.65;0.80;;;;;;;;;;5263593;28;20060;-78
2023/12/20 00:27:13;;;;;;;10.75;1.05;;;;;;;;;;5263207;28;20514;-78
2023/12/20 00:29:47;;;;;;;9.98;1.42;;;;;;;;;;5262872;28;20432;-78
2023/12/20 00:32:19;;;;;;;8.65;0.85;;;;;;;;;;5262213;28;20013;-77
2023/12/20 00:34:50;;;;;;;8.15;1.00;;;;;;;;;;5262895;28;20491;-78
2023/12/20 00:37:21;;;;;;;8.52;1.10;;;;;;;;;;5262741;28;20495;-77
2023/12/20 00:39:53;;;;;;;6.10;0.68;;;;;;;;;;5262402;28;20029;-78
2023/12/20 00:42:24;;;;;;;8.38;0.73;;;;;;;;;;5262654;28;20024;-78
2023/12/20 00:44:55;;;;;;;5.50;0.60;;;;;;;;;;5262376;28;20174;-78
2023/12/20 00:47:26;;;;;;;9.27;1.23;;;;;;;;;;5262752;28;20021;-78
2023/12/20 00:49:58;;;;;;;5.68;0.74;;;;;;;;;;5262793;28;20021;-78
2023/12/20 00:52:29;;;;;;;7.25;0.80;;;;;;;;;;5261990;28;20092;-78
2023/12/20 00:55:00;;;;;;;6.13;1.10;;;;;;;;;;5262635;28;20106;-78
2023/12/20 00:57:31;;;;;;;7.28;0.90;;;;;;;;;;5262455;28;20028;-78
2023/12/20 01:00:03;;;;;;;9.48;1.48;;;;;;;;;;5261947;28;20017;-78
2023/12/20 01:02:34;;;;;;;6.93;0.80;;;;;;;;;;5262809;28;20024;-78
2023/12/20 01:05:07;;;;;;;6.82;0.95;;;;;;;;;;5262488;28;20086;-78
2023/12/20 01:07:38;;;;;;;9.48;1.05;;;;;;;;;;5261298;28;20020;-78
2023/12/20 01:10:09;;;;;;;5.38;0.60;;;;;;;;;;5262310;28;20025;-78
2023/12/20 01:12:40;;;;;;;11.02;0.55;;;;;;;;;;5262572;28;20075;-77
2023/12/20 01:15:11;;;;;;;8.80;0.82;;;;;;;;;;5261715;28;20029;-78
2023/12/20 01:17:43;;;;;;;5.43;0.47;;;;;;;;;;5262467;28;20063;-78
2023/12/20 01:20:14;;;;;;;5.63;0.52;;;;;;;;;;5261427;28;20039;-78
2023/12/20 01:22:45;;;;;;;9.45;0.68;;;;;;;;;;5262506;28;20029;-78
2023/12/20 01:25:17;;;;;;;11.52;0.77;;;;;;;;;;5262128;28;20029;-78
2023/12/20 01:27:48;;;;;;;7.18;0.60;;;;;;;;;;5226211;28;1042138;-78
2023/12/20 01:30:19;;;;;;;9.73;1.17;;;;;;;;;;5263200;28;20112;-78
2023/12/20 01:32:50;;;;;;;8.90;0.60;;;;;;;;;;5263158;28;20036;-78
2023/12/20 01:35:21;;;;;;;5.85;0.60;;;;;;;;;;5262193;28;20020;-78
2023/12/20 01:37:56;;;;;;;7.32;0.85;;;;;;;;;;5263344;28;20027;-78
2023/12/20 01:40:27;;;;;;;4.22;0.52;;;;;;;;;;5263002;28;20052;-78
2023/12/20 01:43:04;;;;;;;4.75;0.40;;;;;;;;;;5262167;28;20051;-78
2023/12/20 01:45:36;;;;;;;6.05;0.82;;;;;;;;;;5263164;28;20017;-78
2023/12/20 01:48:07;;;;;;;4.57;0.50;;;;;;;;;;5262363;28;20087;-78
2023/12/20 01:50:39;;;;;;;7.40;0.88;;;;;;;;;;5262969;28;20025;-78
2023/12/20 01:53:11;;;;;;;9.80;0.95;;;;;;;;;;5262669;28;20035;-78
2023/12/20 01:55:43;;;;;;;5.75;0.90;;;;;;;;;;5262155;28;20056;-78
2023/12/20 01:58:15;;;;;;;9.13;1.80;;;;;;;;;;5262798;28;20419;-78
2023/12/20 02:00:46;;;;;;;9.02;0.70;;;;;;;;;;5262910;28;20029;-78
2023/12/20 02:03:18;;;;;;;8.88;0.85;;;;;;;;;;5261770;28;20048;-78
2023/12/20 02:05:49;;;;;;;7.25;1.05;;;;;;;;;;5262479;28;20035;-78
2023/12/20 02:08:21;;;;;;;9.32;0.60;;;;;;;;;;5262462;28;20472;-78
2023/12/20 02:10:52;;;;;;;13.77;1.35;;;;;;;;;;5261775;28;20017;-78
2023/12/20 02:13:23;;;;;;;11.38;1.58;;;;;;;;;;5261967;28;20464;-78
2023/12/20 02:15:55;;;;;;;7.03;1.25;;;;;;;;;;5262550;28;20025;-78
2023/12/20 02:18:26;;;;;;;11.60;0.85;;;;;;;;;;5260823;28;20495;-77
2023/12/20 02:20:57;;;;;;;9.50;0.82;;;;;;;;;;5261918;28;20025;-78
2023/12/20 02:23:28;;;;;;;7.40;0.70;;;;;;;;;;5261714;28;20023;-78
2023/12/20 02:25:59;;;;;;;8.82;0.80;;;;;;;;;;5262092;28;20045;-78
2023/12/20 02:28:31;;;;;;;7.93;0.63;;;;;;;;;;5262108;28;20032;-78
2023/12/20 02:31:02;;;;;;;6.70;0.80;;;;;;;;;;5261170;28;20048;-78
2023/12/20 02:33:34;;;;;;;9.38;0.70;;;;;;;;;;5261918;28;20381;-78
2023/12/20 02:36:06;;;;;;;8.73;1.20;;;;;;;;;;5261979;28;20375;-78
2023/12/20 02:38:37;;;;;;;8.80;0.60;;;;;;;;;;5261137;28;20036;-78
2023/12/20 02:41:08;;;;;;;13.68;1.10;;;;;;;;;;5261559;28;20036;-78
2023/12/20 02:43:40;;;;;;;8.85;0.95;;;;;;;;;;5261664;28;20074;-77
2023/12/20 02:46:11;;;;;;;10.38;1.17;;;;;;;;;;5260992;28;20059;-78
2023/12/20 02:48:42;;;;;;;8.63;1.30;;;;;;;;;;5262001;28;20020;-78
2023/12/20 02:51:13;;;;;;;9.78;1.12;;;;;;;;;;5260789;28;20032;-78
2023/12/20 02:53:45;;;;;;;7.60;0.90;;;;;;;;;;5261439;28;20127;-78
2023/12/20 02:56:16;;;;;;;9.86;0.80;;;;;;;;;;5261533;28;20040;-78
2023/12/20 02:58:47;;;;;;;7.40;1.38;;;;;;;;;;5260587;28;20123;-78
2023/12/20 03:01:18;;;;;;;10.38;1.38;;;;;;;;;;5261664;28;20020;-78
2023/12/20 03:03:49;;;;;;;9.15;0.68;;;;;;;;;;5261517;28;20029;-78
2023/12/20 03:06:20;;;;;;;13.20;0.93;;;;;;;;;;5260414;28;20111;-78
2023/12/20 03:08:51;;;;;;;6.92;0.98;;;;;;;;;;5261418;28;20025;-78
2023/12/20 03:11:26;;;;;;;8.57;0.70;;;;;;;;;;5261007;28;20456;-78
2023/12/20 03:13:57;;;;;;;11.48;0.98;;;;;;;;;;5260865;28;20579;-78
2023/12/20 03:16:28;;;;;;;9.65;1.25;;;;;;;;;;5261362;28;20025;-78
2023/12/20 03:18:59;;;;;;;4.35;0.90;;;;;;;;;;5261143;28;20096;-78
2023/12/20 03:21:31;;;;;;;6.97;1.05;;;;;;;;;;5260480;28;20036;-78
2023/12/20 03:24:02;;;;;;;8.25;1.10;;;;;;;;;;5261262;28;20487;-79
2023/12/20 03:26:33;;;;;;;10.57;1.15;;;;;;;;;;5260416;28;20049;-78
2023/12/20 03:29:04;;;;;;;12.35;1.30;;;;;;;;;;5261111;28;20020;-78
2023/12/20 03:31:36;;;;;;;7.80;1.02;;;;;;;;;;5260995;28;20020;-79
2023/12/20 03:34:07;;;;;;;7.68;1.35;;;;;;;;;;5260478;28;20029;-78
2023/12/20 03:36:38;;;;;;;7.10;1.20;;;;;;;;;;5261181;28;20024;-78
2023/12/20 03:39:10;;;;;;;9.32;1.45;;;;;;;;;;5261000;28;20037;-78
2023/12/20 03:41:41;;;;;;;10.68;1.13;;;;;;;;;;5260251;28;20025;-78
2023/12/20 03:44:12;;;;;;;10.92;1.22;;;;;;;;;;5260762;28;20029;-78
2023/12/20 03:46:45;;;;;;;8.95;1.10;;;;;;;;;;5261056;28;20013;-78
2023/12/20 03:49:16;;;;;;;10.73;0.90;;;;;;;;;;5260237;28;20107;-78
2023/12/20 03:51:47;;;;;;;10.45;1.58;;;;;;;;;;5260693;28;20097;-78
2023/12/20 03:54:19;;;;;;;9.14;1.02;;;;;;;;;;5260711;28;20012;-78
2023/12/20 03:56:50;;;;;;;8.48;1.25;;;;;;;;;;5259917;28;20025;-77
2023/12/20 03:59:22;;;;;;;16.70;1.75;;;;;;;;;;5260319;28;20542;-78
2023/12/20 04:01:53;;;;;;;12.15;1.23;;;;;;;;;;5260320;28;20601;-78
2023/12/20 04:04:24;;;;;;;10.60;1.54;;;;;;;;;;5260439;28;20032;-78
2023/12/20 04:06:55;;;;;;;14.98;2.06;;;;;;;;;;5261021;28;20021;-78
2023/12/20 04:09:26;;;;;;;8.57;1.42;;;;;;;;;;5259510;28;20021;-78
2023/12/20 04:11:57;;;;;;;10.80;1.40;;;;;;;;;;5260575;28;20019;-78
2023/12/20 04:14:29;;;;;;;13.15;1.35;;;;;;;;;;5260434;28;20032;-77
2023/12/20 04:17:00;;;;;;;8.06;1.64;;;;;;;;;;5259860;28;20452;-78
2023/12/20 04:19:31;;;;;;;14.00;1.75;;;;;;;;;;5260399;28;20392;-78
2023/12/20 04:22:02;;;;;;;11.60;1.48;;;;;;;;;;5260698;28;20009;-77
2023/12/20 04:24:33;;;;;;;8.82;1.63;;;;;;;;;;5259860;28;20055;-78
2023/12/20 04:27:05;;;;;;;10.25;1.40;;;;;;;;;;5260310;28;20133;-78
2023/12/20 04:29:36;;;;;;;9.77;1.45;;;;;;;;;;5260314;28;20052;-77
2023/12/20 04:32:07;;;;;;;11.80;1.30;;;;;;;;;;5259565;28;20472;-76
2023/12/20 04:34:38;;;;;;;14.10;1.77;;;;;;;;;;5260249;28;20009;-77
2023/12/20 04:37:09;;;;;;;11.20;2.00;;;;;;;;;;5259579;28;20025;-77
2023/12/20 04:39:41;;;;;;;9.84;1.32;;;;;;;;;;5260169;28;20523;-77
2023/12/20 04:42:12;;;;;;;12.25;1.58;;;;;;;;;;5260650;28;20495;-77
2023/12/20 04:44:43;;;;;;;13.65;1.60;;;;;;;;;;5263391;28;20044;-77
2023/12/20 04:47:15;;;;;;;9.93;1.45;;;;;;;;;;5264279;28;20025;-77
2023/12/20 04:49:46;;;;;;;9.40;0.95;;;;;;;;;;5264149;28;20017;-77
2023/12/20 04:52:17;;;;;;;15.25;1.60;;;;;;;;;;5263412;28;20029;-77
2023/12/20 04:54:48;;;;;;;12.45;2.42;;;;;;;;;;5263919;28;20017;-79
2023/12/20 04:57:19;;;;;;;12.77;1.48;;;;;;;;;;5264084;28;20017;-77
2023/12/20 04:59:51;;;;;;;12.93;1.20;;;;;;;;;;5263110;28;20029;-77
2023/12/20 05:02:22;;;;;;;13.45;1.55;;;;;;;;;;5263375;28;20044;-78
2023/12/20 05:04:53;;;;;;;5.88;1.10;;;;;;;;;;5262961;28;20021;-77
2023/12/20 05:07:24;;;;;;;11.43;1.40;;;;;;;;;;5263009;28;20021;-76
2023/12/20 05:09:55;;;;;;;12.32;1.88;;;;;;;;;;5264123;28;20024;-78
2023/12/20 05:12:26;;;;;;;8.40;0.90;;;;;;;;;;5262602;28;20024;-78
2023/12/20 05:14:58;;;;;;;10.60;1.55;;;;;;;;;;5263458;28;20017;-77
2023/12/20 05:17:29;;;;;;;7.57;1.02;;;;;;;;;;5263382;28;20092;-77
2023/12/20 05:20:00;;;;;;;10.68;1.50;;;;;;;;;;5262640;28;20388;-77
2023/12/20 05:22:31;;;;;;;7.53;1.45;;;;;;;;;;5264016;28;20117;-78
2023/12/20 05:25:04;;;;;;;10.56;1.10;;;;;;;;;;5263572;28;20074;-78
2023/12/20 05:27:35;;;;;;;11.55;1.45;;;;;;;;;;5262375;28;20056;-77
2023/12/20 05:30:07;;;;;;;15.00;1.52;;;;;;;;;;5263010;28;20017;-77
2023/12/20 05:32:38;;;;;;;13.25;1.33;;;;;;;;;;5263344;28;20025;-77
2023/12/20 05:35:09;;;;;;;11.27;0.98;;;;;;;;;;5262653;28;20013;-78
2023/12/20 05:37:40;;;;;;;12.73;2.10;;;;;;;;;;5263226;28;20082;-78
2023/12/20 05:40:12;;;;;;;11.80;1.58;;;;;;;;;;5262160;28;20025;-77
2023/12/20 05:42:43;;;;;;;10.98;1.55;;;;;;;;;;5262886;28;20013;-77
2023/12/20 05:45:14;;;;;;;12.32;1.23;;;;;;;;;;5262998;28;20052;-78
2023/12/20 05:47:45;;;;;;;11.10;1.23;;;;;;;;;;5262372;28;20021;-78
2023/12/20 05:50:17;;;;;;;10.13;1.13;;;;;;;;;;5262694;28;20072;-78
2023/12/20 05:52:48;;;;;;;7.95;1.45;;;;;;;;;;5262717;28;20024;-78
2023/12/20 05:55:19;;;;;;;14.18;1.05;;;;;;;;;;5260725;28;20431;-77
2023/12/20 05:57:50;;;;;;;11.50;1.00;;;;;;;;;;5262597;28;20021;-77
2023/12/20 06:00:21;;;;;;;16.50;1.40;;;;;;;;;;5262225;28;20502;-77
2023/12/20 06:02:53;;;;;;;8.45;1.10;;;;;;;;;;5262172;28;20017;-77
2023/12/20 06:05:24;;;;;;;10.77;1.00;;;;;;;;;;5262205;28;20535;-78
2023/12/20 06:07:57;;;;;;;9.50;1.27;;;;;;;;;;5262906;28;20480;-78
2023/12/20 06:10:28;;;;;;;11.60;1.52;;;;;;;;;;5261594;28;20024;-77
2023/12/20 06:13:00;;;;;;;11.35;0.93;;;;;;;;;;5262631;28;20468;-78
2023/12/20 06:15:32;;;;;;;14.30;1.25;;;;;;;;;;5261703;28;20479;-77
2023/12/20 06:18:03;;;;;;;12.00;1.60;;;;;;;;;;5262313;28;20435;-77
2023/12/20 06:20:35;;;;;;;15.02;1.88;;;;;;;;;;5262097;28;20032;-78
2023/12/20 06:23:06;;;;;;;8.13;1.10;;;;;;;;;;5261627;28;20123;-77
2023/12/20 06:25:38;;;;;;;12.38;1.77;;;;;;;;;;5262045;28;20037;-77
2023/12/20 06:28:10;;;;;;;8.90;1.50;;;;;;;;;;5262290;28;20013;-78
2023/12/20 06:30:41;;;;;;;15.38;1.60;;;;;;;;;;5261312;28;20496;-78
2023/12/20 06:33:13;;;;;;;12.13;3.13;;;;;;;;;;5262124;28;20092;-78
2023/12/20 06:35:44;;;;;;;11.35;2.22;;;;;;;;;;5262125;28;20453;-78
2023/12/20 06:38:16;;;;;;;12.00;1.77;;;;;;;;;;5261116;28;20067;-78
2023/12/20 06:40:47;;;;;;;16.33;2.40;;;;;;;;;;5261891;28;20025;-78
2023/12/20 06:43:18;;;;;;;12.55;1.50;;;;;;;;;;5261051;28;20017;-77
2023/12/20 06:45:50;;;;;;;13.35;1.55;;;;;;;;;;5261713;28;20029;-78
2023/12/20 06:48:22;;;;;;;11.27;1.90;;;;;;;;;;5261034;28;20017;-78
2023/12/20 06:50:53;;;;;;;11.65;1.50;;;;;;;;;;5261092;28;20021;-78
2023/12/20 06:53:24;;;;;;;15.45;1.73;;;;;;;;;;5261318;28;20452;-77
2023/12/20 06:55:58;;;;;;;11.30;1.50;;;;;;;;;;5261815;28;20021;-78
2023/12/20 06:58:29;;;;;;;11.05;1.60;;;;;;;;;;5260822;28;20017;-79
2023/12/20 07:01:01;;;;;;;8.38;2.22;;;;;;;;;;5261407;28;20044;-77
2023/12/20 07:03:32;;;;;;;13.65;1.83;;;;;;;;;;5261462;28;20013;-78
2023/12/20 07:06:03;;;;;;;13.25;1.85;;;;;;;;;;5260289;28;20074;-77
2023/12/20 07:08:34;;;;;;;14.50;2.35;;;;;;;;;;5261371;28;20068;-78
2023/12/20 07:11:06;;;;;;;12.45;3.17;;;;;;;;;;5261174;28;20037;-78
2023/12/20 07:13:37;;;;;;;10.55;2.15;;;;;;;;;;5260960;28;20490;-78
2023/12/20 07:16:08;;;;;;;13.50;1.98;;;;;;;;;;5261512;28;20048;-78
2023/12/20 07:18:39;;;;;;;11.70;1.83;;;;;;;;;;5260146;28;20032;-78
2023/12/20 07:21:10;;;;;;;10.23;1.60;;;;;;;;;;5260885;28;20079;-78
2023/12/20 07:23:42;;;;;;;9.82;1.25;;;;;;;;;;5261136;28;20357;-78
2023/12/20 07:26:13;;;;;;;14.30;1.42;;;;;;;;;;5260179;28;20064;-79
2023/12/20 07:28:44;;;;;;;14.90;2.58;;;;;;;;;;5261077;28;20035;-78
2023/12/20 07:31:16;;;;;;;14.10;1.35;;;;;;;;;;5260821;28;20025;-78
2023/12/20 07:33:47;;;;;;;10.63;2.17;;;;;;;;;;5260400;28;20057;-79
2023/12/20 07:36:19;;;;;;;12.43;1.92;;;;;;;;;;5261087;28;20017;-81
2023/12/20 07:38:50;;;;;;;10.82;1.25;;;;;;;;;;5260927;28;20017;-79
2023/12/20 07:41:23;;;;;;;14.32;2.95;;;;;;;;;;5259792;28;20043;-79
2023/12/20 07:43:55;;;;;;;9.23;1.48;;;;;;;;;;5261186;28;20021;-80
2023/12/20 07:46:27;;;;;;;13.38;1.80;;;;;;;;;;5260799;28;20079;-79
2023/12/20 07:48:58;;;;;;;9.38;1.40;;;;;;;;;;5260249;28;20453;-79
2023/12/20 07:51:29;;;;;;;8.65;1.20;;;;;;;;;;5261241;28;20386;-81
2023/12/20 07:54:00;;;;;;;11.10;1.50;;;;;;;;;;5260145;28;20013;-79
2023/12/20 07:56:31;;;;;;;10.88;1.85;;;;;;;;;;5260949;28;20104;-79
2023/12/20 07:59:03;;;;;;;11.20;1.48;;;;;;;;;;5260731;28;20039;-79
2023/12/20 08:01:34;;;;;;;13.00;1.50;;;;;;;;;;5259943;28;20092;-79
2023/12/20 08:04:05;;;;;;;10.63;1.33;;;;;;;;;;5260829;28;20048;-79
2023/12/20 08:06:36;;;;;;;11.02;1.30;;;;;;;;;;5260626;28;20021;-79
2023/12/20 08:09:07;;;;;;;8.90;1.60;;;;;;;;;;5260459;28;20025;-79
2023/12/20 08:11:38;;;;;;;9.40;1.50;;;;;;;;;;5261623;28;20025;-80
2023/12/20 08:14:10;;;;;;;14.10;1.98;;;;;;;;;;5261862;28;20016;-80
2023/12/20 08:16:41;;;;;;;12.07;1.20;;;;;;;;;;5260651;28;20048;-80
2023/12/20 08:19:12;;;;;;;16.33;1.92;;;;;;;;;;5265374;28;20029;-81
2023/12/20 08:21:44;;;;;;;10.82;1.65;;;;;;;;;;5265110;28;20009;-80
2023/12/20 08:24:15;;;;;;;9.65;1.23;;;;;;;;;;5263968;28;20032;-82
2023/12/20 08:26:46;;;;;;;14.95;1.73;;;;;;;;;;5264368;28;20053;-83
2023/12/20 08:29:17;;;;;;;12.25;1.50;;;;;;;;;;5263806;28;20525;-80
2023/12/20 08:31:52;;;;;;;12.60;1.50;;;;;;;;;;5264820;28;20507;-81
2023/12/20 08:34:26;;;;;;;16.23;2.28;;;;;;;;;;5264269;28;20032;-80
2023/12/20 08:36:57;;;;;;;13.95;1.45;;;;;;;;;;5263112;28;20399;-79
2023/12/20 08:39:29;;;;;;;14.90;2.85;;;;;;;;;;5264102;28;20029;-81
2023/12/20 08:42:01;;;;;;;9.85;1.35;;;;;;;;;;5264192;28;20395;-82
2023/12/20 08:44:32;;;;;;;11.68;1.50;;;;;;;;;;5263563;28;20017;-81
2023/12/20 08:47:03;;;;;;;9.82;1.38;;;;;;;;;;5263831;28;20029;-80
2023/12/20 08:49:34;;;;;;;10.10;1.70;;;;;;;;;;5263902;28;20017;-81
2023/12/20 08:52:05;;;;;;;15.18;1.58;;;;;;;;;;5263306;28;20494;-82
2023/12/20 08:54:37;;;;;;;10.77;1.55;;;;;;;;;;5263562;28;20013;-81
2023/12/20 08:57:08;;;;;;;9.68;1.30;;;;;;;;;;5263316;28;20103;-81
2023/12/20 08:59:39;;;;;;;11.05;1.88;;;;;;;;;;5264019;28;20033;-81
2023/12/20 09:02:10;;;;;;;10.50;1.02;;;;;;;;;;5263516;28;20009;-81
2023/12/20 09:04:42;;;;;;;14.52;1.73;;;;;;;;;;5262945;28;20040;-81
2023/12/20 09:07:23;;;;;;;13.05;1.38;;;;;;;;;;5263476;28;20063;-81
2023/12/20 09:09:54;;;;;;;10.35;1.42;;;;;;;;;;5265018;28;20021;-82
2023/12/20 09:12:25;;;;;;;12.18;1.45;;;;;;;;;;5262857;28;20021;-82
2023/12/20 09:14:57;;;;;;;13.02;2.17;;;;;;;;;;5263513;28;20088;-82
2023/12/20 09:17:28;;;;;;;12.95;1.95;;;;;;;;;;5263199;28;20523;-81
2023/12/20 09:19:59;;;;;;;7.47;1.60;;;;;;;;;;5255272;28;20025;-80
2023/12/20 09:22:31;;;;;;;15.77;1.85;;;;;;;;;;5261355;28;20021;-81
2023/12/20 09:25:02;;;;;;;13.85;1.55;;;;;;;;;;5262149;28;20116;-79
2023/12/20 09:27:33;;;;;;;14.52;1.13;;;;;;;;;;5261443;28;20531;-82
2023/12/20 09:30:05;;;;;;;12.57;1.38;;;;;;;;;;5261691;28;20107;-80
2023/12/20 09:32:36;;;;;;;11.75;1.35;;;;;;;;;;5261150;28;20396;-78
2023/12/20 09:35:08;;;;;;;11.32;1.20;;;;;;;;;;5262885;28;20094;-83
2023/12/20 09:37:43;;;;;;;9.10;1.30;;;;;;;;;;5262516;28;20021;-83
2023/12/20 09:40:16;;;;;;;9.77;1.38;;;;;;;;;;5260503;28;20029;-84
2023/12/20 09:42:55;;;;;;;8.07;1.17;;;;;;;;;;5261543;28;20025;-84
2023/12/20 09:45:27;;;;;;;11.98;1.60;;;;;;;;;;5261850;28;20467;-84
2023/12/20 09:47:58;;;;;;;14.32;1.13;;;;;;;;;;5262228;28;20028;-84
2023/12/20 09:50:32;;;;;;;13.30;1.50;;;;;;;;;;5263018;28;20124;-85
2023/12/20 09:53:04;;;;;;;12.80;1.23;;;;;;;;;;5262842;28;20032;-85
2023/12/20 09:55:36;;;;;;;8.00;1.00;;;;;;;;;;5262225;28;20016;-84
2023/12/20 09:58:08;;;;;;;9.13;1.17;;;;;;;;;;5262783;28;20024;-84
2023/12/20 10:00:39;;;;;;;12.07;1.45;;;;;;;;;;5261524;28;20113;-84
2023/12/20 10:03:10;;;;;;;14.65;1.55;;;;;;;;;;5262668;28;20518;-84
2023/12/20 10:05:42;;;;;;;8.38;1.05;;;;;;;;;;5262525;28;20128;-84
2023/12/20 10:08:14;;;;;;;8.90;1.30;;;;;;;;;;5261950;28;20475;-85
2023/12/20 10:10:45;;;;;;;11.20;1.60;;;;;;;;;;5262675;28;20067;-85
2023/12/20 10:13:16;;;;;;;6.97;1.48;;;;;;;;;;5262532;28;20021;-84
2023/12/20 10:15:49;;;;;;;8.43;0.80;;;;;;;;;;5261672;28;20079;-85
2023/12/20 10:18:20;;;;;;;11.25;1.75;;;;;;;;;;5262061;28;20021;-84
2023/12/20 10:20:51;;;;;;;8.32;0.88;;;;;;;;;;5262492;28;20439;-84
2023/12/20 10:23:23;;;;;;;12.60;1.30;;;;;;;;;;5261203;28;20017;-84
2023/12/20 10:25:58;;;;;;;15.50;1.30;;;;;;;;;;5262472;28;20523;-84
2023/12/20 10:28:34;;;;;;;11.70;0.85;;;;;;;;;;5261634;28;20028;-84
2023/12/20 10:31:05;;;;;;;14.40;1.67;;;;;;;;;;5262381;28;20017;-84
2023/12/20 10:33:36;;;;;;;9.57;1.42;;;;;;;;;;5262055;28;20021;-84
2023/12/20 10:36:08;;;;;;;8.27;0.80;;;;;;;;;;5261408;28;20036;-84
2023/12/20 10:38:41;;;;;;;7.65;1.20;;;;;;;;;;5261822;28;20921;-84
2023/12/20 10:41:13;;;;;;;10.18;1.23;;;;;;;;;;5261130;28;20060;-84
2023/12/20 10:43:45;;;;;;;13.73;1.10;;;;;;;;;;5261162;28;20017;-79
2023/12/20 10:46:16;;;;;;;8.32;0.90;;;;;;;;;;5261748;28;20032;-79
2023/12/20 10:48:48;;;;;;;13.23;1.50;;;;;;;;;;5261646;28;20427;-84
2023/12/20 10:51:20;;;;;;;13.20;1.65;;;;;;;;;;5261059;28;20024;-84
2023/12/20 10:53:52;;;;;;;8.57;1.38;;;;;;;;;;5262147;28;20021;-84
2023/12/20 10:56:26;;;;;;;11.50;1.23;;;;;;;;;;5261667;28;20062;-82
2023/12/20 10:59:00;;;;;;;9.35;1.35;;;;;;;;;;5260785;28;20029;-83
2023/12/20 11:01:31;;;;;;;13.55;1.95;;;;;;;;;;5262240;28;20112;-84
2023/12/20 11:04:06;;;;;;;13.18;1.88;;;;;;;;;;5264098;28;20583;-82
2023/12/20 11:06:45;;;;;;;7.68;0.80;;;;;;;;;;5268656;28;20025;-85
2023/12/20 11:09:16;;;;;;;;;;;;;;;;;;5263165;28;20373;-83
2023/12/20 11:12:25;;;;;;;10.35;1.15;;;;;;;;;;5263566;28;19908;-83
2023/12/20 11:15:02;;;;;;;10.73;1.80;;;;;;;;;;5238349;28;20072;-85
2023/12/20 11:17:33;;;;;;;11.98;1.52;;;;;;;;;;5256516;28;20036;-84
2023/12/20 11:20:05;;;;;;;15.13;1.75;;;;;;;;;;5247417;28;20029;-85
2023/12/20 11:22:37;;;;;;;10.50;1.20;;;;;;;;;;5240726;28;20056;-83
2023/12/20 11:25:09;;;;;;;7.43;1.13;;;;;;;;;;5240074;28;20029;-83
2023/12/20 11:27:42;;;;;;;9.18;1.20;;;;;;;;;;5240917;28;20496;-84
2023/12/20 11:30:14;;;;;;;8.85;0.88;;;;;;;;;;5240552;28;20033;-83
2023/12/20 11:32:46;;;;;;;8.23;1.80;;;;;;;;;;5239742;28;20026;-83
2023/12/20 11:35:19;;;;;;;11.07;1.20;;;;;;;;;;5243495;28;20033;-82
2023/12/20 11:37:51;;;;;;;12.57;1.55;;;;;;;;;;5259596;28;20017;-83
2023/12/20 11:40:23;;;;;;;6.93;1.08;;;;;;;;;;5259060;28;20036;-82
2023/12/20 11:42:54;;;;;;;10.90;1.10;;;;;;;;;;5260499;28;20025;-81
2023/12/20 11:45:25;;;;;;;10.82;1.48;;;;;;;;;;5259402;28;20040;-80
2023/12/20 11:47:57;;;;;;;13.85;1.52;;;;;;;;;;5259402;28;20013;-76
2023/12/20 11:50:29;;;;;;;10.80;1.52;;;;;;;;;;5260482;28;20488;-85
2023/12/20 11:53:00;;;;;;;8.10;1.13;;;;;;;;;;5262457;28;20043;-84
2023/12/20 11:55:33;;;;;;;13.85;1.20;;;;;;;;;;5264751;28;20021;-84
2023/12/20 11:58:04;;;;;;;9.55;1.23;;;;;;;;;;5264108;28;20100;-83
2023/12/20 12:00:36;;;;;;;13.57;1.80;;;;;;;;;;5263983;28;20155;-83
2023/12/20 12:03:07;;;;;;;12.90;1.00;;;;;;;;;;5265083;28;20510;-84
2023/12/20 12:05:38;;;;;;;7.28;1.27;;;;;;;;;;5264910;28;20139;-84
2023/12/20 12:08:09;;;;;;;9.43;1.20;;;;;;;;;;5264079;28;20091;-83
2023/12/20 12:10:41;;;;;;;14.07;1.27;;;;;;;;;;5264765;28;20028;-83
2023/12/20 12:13:14;;;;;;;10.75;1.38;;;;;;;;;;5263872;28;20075;-83
2023/12/20 12:15:45;;;;;;;10.85;1.10;;;;;;;;;;5261728;28;20028;-82
2023/12/20 12:18:17;;;;;;;6.45;0.85;;;;;;;;;;5262641;28;20025;-83
2023/12/20 12:20:48;;;;;;;12.75;1.63;;;;;;;;;;5262440;28;20086;-83
2023/12/20 12:23:23;;;;;;;9.27;1.27;;;;;;;;;;5262336;28;20025;-83
2023/12/20 12:25:55;;;;;;;13.90;1.25;;;;;;;;;;5262700;28;20048;-83
2023/12/20 12:28:28;;;;;;;15.23;1.13;;;;;;;;;;5262331;28;20487;-83
2023/12/20 12:30:59;;;;;;;10.02;0.90;;;;;;;;;;5264307;28;20017;-83
2023/12/20 12:33:30;;;;;;;11.43;1.45;;;;;;;;;;5264439;28;20025;-84
2023/12/20 12:36:03;;;;;;;9.82;1.25;;;;;;;;;;5263937;28;20037;-84
2023/12/20 12:38:35;;;;;;;9.20;1.50;;;;;;;;;;5264326;28;20047;-84
2023/12/20 12:41:07;;;;;;;11.25;1.23;;;;;;;;;;5264336;28;20029;-83
2023/12/20 12:43:38;;;;;;;11.73;1.50;;;;;;;;;;5263460;28;20032;-84
2023/12/20 12:46:09;;;;;;;10.80;1.23;;;;;;;;;;5264459;28;20403;-84
2023/12/20 12:48:40;;;;;;;14.52;2.17;;;;;;;;;;5264336;28;20067;-84
2023/12/20 12:51:13;;;;;;;7.95;1.38;;;;;;;;;;5263454;28;20040;-83
2023/12/20 12:53:44;;;;;;;12.07;1.75;;;;;;;;;;5264031;28;20016;-74
2023/12/20 12:56:16;;;;;;;7.80;1.23;;;;;;;;;;5263094;28;20033;-83
2023/12/20 12:58:47;;;;;;;8.38;1.27;;;;;;;;;;5264307;28;20460;-83
2023/12/20 13:01:18;;;;;;;12.27;1.40;;;;;;;;;;5266102;28;20024;-81
2023/12/20 13:03:49;;;;;;;10.45;1.45;;;;;;;;;;5264408;28;20020;-84
2023/12/20 13:06:20;;;;;;;13.25;1.15;;;;;;;;;;5264001;28;20426;-83
2023/12/20 13:08:51;;;;;;;8.93;1.13;;;;;;;;;;5258882;28;20033;-81
2023/12/20 13:11:23;;;;;;;10.52;2.28;;;;;;;;;;5257254;28;20487;-81
2023/12/20 13:13:54;;;;;;;9.60;0.98;;;;;;;;;;5263173;28;20017;-81
2023/12/20 13:16:25;;;;;;;9.98;1.88;;;;;;;;;;5262801;28;20402;-81
2023/12/20 13:18:57;;;;;;;9.40;1.92;;;;;;;;;;5261762;28;20021;-84
2023/12/20 13:21:30;;;;;;;11.68;1.77;;;;;;;;;;5262917;28;20518;-81
2023/12/20 13:24:01;;;;;;;11.07;1.65;;;;;;;;;;5262346;28;20017;-82
2023/12/20 13:26:32;;;;;;;8.18;1.30;;;;;;;;;;5261482;28;20114;-80
2023/12/20 13:29:04;;;;;;;10.18;1.50;;;;;;;;;;5262611;28;20101;-82
2023/12/20 13:31:36;;;;;;;9.57;1.80;;;;;;;;;;5261572;28;20055;-81
2023/12/20 13:34:07;;;;;;;6.72;1.10;;;;;;;;;;5262554;28;20017;-79
2023/12/20 13:36:38;;;;;;;8.30;0.98;;;;;;;;;;5262008;28;20024;-77
2023/12/20 13:39:10;;;;;;;10.07;1.50;;;;;;;;;;5261010;28;20033;-77
2023/12/20 13:41:41;;;;;;;12.95;2.50;;;;;;;;;;5262288;28;20487;-77
2023/12/20 13:44:12;;;;;;;15.05;1.90;;;;;;;;;;5261985;28;20024;-79
2023/12/20 13:46:45;;;;;;;14.73;1.83;;;;;;;;;;5261158;28;20029;-77
2023/12/20 13:49:16;;;;;;;16.83;2.13;;;;;;;;;;5261377;28;20025;-78
2023/12/20 13:51:47;;;;;;;10.45;1.60;;;;;;;;;;5261070;28;20048;-78
2023/12/20 13:54:21;;;;;;;9.22;1.82;;;;;;;;;;5245766;28;20047;-77
2023/12/20 13:56:52;;;;;;;11.13;1.73;;;;;;;;;;5250686;28;20060;-79
2023/12/20 13:59:23;;;;;;;10.70;1.83;;;;;;;;;;5260413;28;20029;-80
2023/12/20 14:01:56;;;;;;;11.12;1.54;;;;;;;;;;5256879;28;20480;-80
2023/12/20 14:04:28;;;;;;;12.48;1.90;;;;;;;;;;5259967;28;20044;-81
2023/12/20 14:06:59;;;;;;;8.02;1.70;;;;;;;;;;5259831;28;20405;-79
2023/12/20 14:09:30;;;;;;;9.93;1.20;;;;;;;;;;5261231;28;20060;-80
2023/12/20 14:12:01;;;;;;;13.40;1.95;;;;;;;;;;5260906;28;20090;-79
2023/12/20 14:14:32;;;;;;;13.05;2.58;;;;;;;;;;5259792;28;20057;-79
2023/12/20 14:17:06;;;;;;;7.75;1.23;;;;;;;;;;5260236;28;20067;-80
2023/12/20 14:19:37;;;;;;;8.73;1.13;;;;;;;;;;5261058;28;20428;-80
2023/12/20 14:22:08;;;;;;;12.98;1.70;;;;;;;;;;5260243;28;20027;-79
2023/12/20 14:24:39;;;;;;;11.02;1.70;;;;;;;;;;5260697;28;20025;-79
2023/12/20 14:27:11;;;;;;;10.52;1.33;;;;;;;;;;5259909;28;20045;-79
2023/12/20 14:29:42;;;;;;;9.40;2.08;;;;;;;;;;5251339;28;20052;-73
2023/12/20 14:32:15;;;;;;;8.98;1.40;;;;;;;;;;5261489;28;20025;-75
2023/12/20 14:34:46;;;;;;;11.85;1.25;;;;;;;;;;5260254;28;20020;-75
2023/12/20 14:37:17;;;;;;;11.55;2.22;;;;;;;;;;5261533;28;20690;-76
2023/12/20 14:39:48;;;;;;;10.75;1.63;;;;;;;;;;5259364;28;20029;-75
2023/12/20 14:42:20;;;;;;;11.52;1.48;;;;;;;;;;5260060;28;20021;-75
2023/12/20 14:44:52;;;;;;;10.77;1.40;;;;;;;;;;5261945;28;20029;-75
2023/12/20 14:47:24;;;;;;;12.13;2.45;;;;;;;;;;5261328;28;20096;-75
2023/12/20 14:49:56;;;;;;;11.23;1.52;;;;;;;;;;5261414;28;20033;-76
2023/12/20 14:52:27;;;;;;;10.27;1.10;;;;;;;;;;5261374;28;20017;-75
2023/12/20 14:54:58;;;;;;;8.00;1.13;;;;;;;;;;5261454;28;20051;-75
2023/12/20 14:57:29;;;;;;;9.88;1.58;;;;;;;;;;5260789;28;20472;-75
2023/12/20 15:00:00;;;;;;;7.30;1.08;;;;;;;;;;5261541;28;20024;-74
2023/12/20 15:02:32;;;;;;;7.72;1.60;;;;;;;;;;5261407;28;20024;-75